sensor_id;sensor_type;location;lat;lon;timestamp;temperature;humidity
46055;DHT22;31788;6.954;-71.872;2022-12-10T00:01:27;27.70;94.30
46055;DHT22;31788;6.954;-71.872;2022-12-10T00:03:54;27.70;94.30
46055;DHT22;31788;6.954;-71.872;2022-12-10T00:06:24;27.60;94.40
46055;DHT22;31788;6.954;-71.872;2022-12-10T00:08:51;27.60;94.40
46055;DHT22;31788;6.954;-71.872;2022-12-10T00:11:20;27.50;94.30
46055;DHT22;31788;6.954;-71.872;2022-12-10T00:13:48;27.50;94.40
46055;DHT22;31788;6.954;-71.872;2022-12-10T00:16:16;27.50;94.50
46055;DHT22;31788;6.954;-71.872;2022-12-10T00:18:44;27.40;94.50
46055;DHT22;31788;6.954;-71.872;2022-12-10T00:21:13;27.40;94.80
46055;DHT22;31788;6.954;-71.872;2022-12-10T00:23:42;27.40;94.50
46055;DHT22;31788;6.954;-71.872;2022-12-10T00:26:14;27.40;94.60
46055;DHT22;31788;6.954;-71.872;2022-12-10T00:28:42;27.30;94.60
46055;DHT22;31788;6.954;-71.872;2022-12-10T00:31:12;27.40;94.50
46055;DHT22;31788;6.954;-71.872;2022-12-10T00:33:39;27.30;94.50
46055;DHT22;31788;6.954;-71.872;2022-12-10T00:36:14;27.40;94.50
46055;DHT22;31788;6.954;-71.872;2022-12-10T00:38:41;27.30;94.50
46055;DHT22;31788;6.954;-71.872;2022-12-10T00:41:09;27.30;94.50
46055;DHT22;31788;6.954;-71.872;2022-12-10T00:43:36;27.30;94.40
46055;DHT22;31788;6.954;-71.872;2022-12-10T00:46:03;27.20;94.30
46055;DHT22;31788;6.954;-71.872;2022-12-10T00:48:30;27.30;94.20
46055;DHT22;31788;6.954;-71.872;2022-12-10T00:51:05;27.40;94.00
46055;DHT22;31788;6.954;-71.872;2022-12-10T00:53:35;27.40;94.00
46055;DHT22;31788;6.954;-71.872;2022-12-10T00:56:03;27.40;94.10
46055;DHT22;31788;6.954;-71.872;2022-12-10T00:58:31;27.40;94.00
46055;DHT22;31788;6.954;-71.872;2022-12-10T01:01:20;27.30;93.90
46055;DHT22;31788;6.954;-71.872;2022-12-10T01:03:48;27.40;93.90
46055;DHT22;31788;6.954;-71.872;2022-12-10T01:06:24;27.30;93.60
46055;DHT22;31788;6.954;-71.872;2022-12-10T01:08:53;27.30;93.70
46055;DHT22;31788;6.954;-71.872;2022-12-10T01:11:26;27.20;93.70
46055;DHT22;31788;6.954;-71.872;2022-12-10T01:13:53;27.20;93.70
46055;DHT22;31788;6.954;-71.872;2022-12-10T01:16:21;27.20;93.60
46055;DHT22;31788;6.954;-71.872;2022-12-10T01:18:55;27.20;93.70
46055;DHT22;31788;6.954;-71.872;2022-12-10T01:21:23;27.20;93.70
46055;DHT22;31788;6.954;-71.872;2022-12-10T01:23:51;27.10;93.60
46055;DHT22;31788;6.954;-71.872;2022-12-10T01:26:20;27.10;93.60
46055;DHT22;31788;6.954;-71.872;2022-12-10T01:28:48;27.10;93.70
46055;DHT22;31788;6.954;-71.872;2022-12-10T01:31:17;27.10;93.60
46055;DHT22;31788;6.954;-71.872;2022-12-10T01:33:49;27.10;93.60
46055;DHT22;31788;6.954;-71.872;2022-12-10T01:36:24;27.10;93.80
46055;DHT22;31788;6.954;-71.872;2022-12-10T01:38:51;27.00;93.90
46055;DHT22;31788;6.954;-71.872;2022-12-10T01:41:30;27.00;94.00
46055;DHT22;31788;6.954;-71.872;2022-12-10T01:44:02;27.00;93.90
46055;DHT22;31788;6.954;-71.872;2022-12-10T01:46:34;26.90;93.90
46055;DHT22;31788;6.954;-71.872;2022-12-10T01:49:04;26.90;93.90
46055;DHT22;31788;6.954;-71.872;2022-12-10T01:51:34;27.00;93.90
46055;DHT22;31788;6.954;-71.872;2022-12-10T01:54:04;26.90;93.90
46055;DHT22;31788;6.954;-71.872;2022-12-10T01:56:35;26.90;93.70
46055;DHT22;31788;6.954;-71.872;2022-12-10T01:59:02;26.90;93.70
46055;DHT22;31788;6.954;-71.872;2022-12-10T02:01:52;26.90;93.60
46055;DHT22;31788;6.954;-71.872;2022-12-10T02:08:25;26.90;93.60
46055;DHT22;31788;6.954;-71.872;2022-12-10T02:15:51;26.80;93.50
46055;DHT22;31788;6.954;-71.872;2022-12-10T02:18:26;26.80;93.50
46055;DHT22;31788;6.954;-71.872;2022-12-10T02:20:57;26.80;93.60
46055;DHT22;31788;6.954;-71.872;2022-12-10T02:23:28;26.80;93.60
46055;DHT22;31788;6.954;-71.872;2022-12-10T02:29:10;26.80;93.60
46055;DHT22;31788;6.954;-71.872;2022-12-10T02:31:42;26.80;93.70
46055;DHT22;31788;6.954;-71.872;2022-12-10T02:34:10;26.70;93.60
46055;DHT22;31788;6.954;-71.872;2022-12-10T02:36:40;26.60;93.80
46055;DHT22;31788;6.954;-71.872;2022-12-10T02:39:11;26.70;93.80
46055;DHT22;31788;6.954;-71.872;2022-12-10T02:41:42;26.70;93.80
46055;DHT22;31788;6.954;-71.872;2022-12-10T02:44:13;26.70;93.70
46055;DHT22;31788;6.954;-71.872;2022-12-10T02:46:42;26.70;93.60
46055;DHT22;31788;6.954;-71.872;2022-12-10T02:49:12;26.70;93.70
46055;DHT22;31788;6.954;-71.872;2022-12-10T02:51:40;26.70;93.70
46055;DHT22;31788;6.954;-71.872;2022-12-10T02:54:40;26.70;93.70
46055;DHT22;31788;6.954;-71.872;2022-12-10T02:57:35;26.70;93.50
46055;DHT22;31788;6.954;-71.872;2022-12-10T03:00:22;26.70;93.50
46055;DHT22;31788;6.954;-71.872;2022-12-10T03:08:42;26.70;94.00
46055;DHT22;31788;6.954;-71.872;2022-12-10T03:11:14;26.60;94.00
46055;DHT22;31788;6.954;-71.872;2022-12-10T03:13:59;26.60;94.10
46055;DHT22;31788;6.954;-71.872;2022-12-10T03:16:30;26.60;94.00
46055;DHT22;31788;6.954;-71.872;2022-12-10T03:19:01;26.60;94.00
46055;DHT22;31788;6.954;-71.872;2022-12-10T03:21:30;26.60;94.20
46055;DHT22;31788;6.954;-71.872;2022-12-10T03:23:58;26.60;94.10
46055;DHT22;31788;6.954;-71.872;2022-12-10T03:26:25;26.60;94.10
46055;DHT22;31788;6.954;-71.872;2022-12-10T03:29:06;26.50;94.10
46055;DHT22;31788;6.954;-71.872;2022-12-10T03:31:34;26.60;94.10
46055;DHT22;31788;6.954;-71.872;2022-12-10T03:34:02;26.50;94.20
46055;DHT22;31788;6.954;-71.872;2022-12-10T03:36:30;26.50;94.20
46055;DHT22;31788;6.954;-71.872;2022-12-10T03:39:00;26.50;94.20
46055;DHT22;31788;6.954;-71.872;2022-12-10T03:41:27;26.50;94.20
46055;DHT22;31788;6.954;-71.872;2022-12-10T03:43:58;26.50;94.00
46055;DHT22;31788;6.954;-71.872;2022-12-10T03:46:27;26.60;94.00
46055;DHT22;31788;6.954;-71.872;2022-12-10T03:48:55;26.60;94.00
46055;DHT22;31788;6.954;-71.872;2022-12-10T03:51:22;26.60;93.80
46055;DHT22;31788;6.954;-71.872;2022-12-10T03:53:49;26.60;93.90
46055;DHT22;31788;6.954;-71.872;2022-12-10T03:56:16;26.60;93.90
46055;DHT22;31788;6.954;-71.872;2022-12-10T03:58:45;26.60;93.80
46055;DHT22;31788;6.954;-71.872;2022-12-10T04:01:11;26.60;93.90
46055;DHT22;31788;6.954;-71.872;2022-12-10T04:03:39;26.60;93.90
46055;DHT22;31788;6.954;-71.872;2022-12-10T04:06:14;26.60;93.90
46055;DHT22;31788;6.954;-71.872;2022-12-10T04:08:41;26.50;93.90
46055;DHT22;31788;6.954;-71.872;2022-12-10T04:11:10;26.60;94.10
46055;DHT22;31788;6.954;-71.872;2022-12-10T04:13:38;26.50;93.90
46055;DHT22;31788;6.954;-71.872;2022-12-10T04:16:23;26.50;94.40
46055;DHT22;31788;6.954;-71.872;2022-12-10T04:19:02;26.50;94.10
46055;DHT22;31788;6.954;-71.872;2022-12-10T04:21:31;26.50;94.30
46055;DHT22;31788;6.954;-71.872;2022-12-10T04:24:19;26.40;94.40
46055;DHT22;31788;6.954;-71.872;2022-12-10T04:27:08;26.40;94.40
46055;DHT22;31788;6.954;-71.872;2022-12-10T04:29:35;26.40;94.40
46055;DHT22;31788;6.954;-71.872;2022-12-10T04:32:02;26.50;94.50
46055;DHT22;31788;6.954;-71.872;2022-12-10T04:34:28;26.40;94.70
46055;DHT22;31788;6.954;-71.872;2022-12-10T04:36:56;26.40;95.00
46055;DHT22;31788;6.954;-71.872;2022-12-10T04:39:23;26.30;95.00
46055;DHT22;31788;6.954;-71.872;2022-12-10T04:41:50;26.30;94.80
46055;DHT22;31788;6.954;-71.872;2022-12-10T04:44:17;26.20;95.00
46055;DHT22;31788;6.954;-71.872;2022-12-10T04:46:44;26.20;95.10
46055;DHT22;31788;6.954;-71.872;2022-12-10T04:49:11;26.10;95.40
46055;DHT22;31788;6.954;-71.872;2022-12-10T04:51:38;26.10;95.40
46055;DHT22;31788;6.954;-71.872;2022-12-10T04:54:05;26.10;95.30
46055;DHT22;31788;6.954;-71.872;2022-12-10T04:56:32;26.10;95.50
46055;DHT22;31788;6.954;-71.872;2022-12-10T04:58:59;26.10;95.40
46055;DHT22;31788;6.954;-71.872;2022-12-10T05:01:27;26.10;95.70
46055;DHT22;31788;6.954;-71.872;2022-12-10T05:03:54;26.00;95.70
46055;DHT22;31788;6.954;-71.872;2022-12-10T05:06:21;26.00;95.90
46055;DHT22;31788;6.954;-71.872;2022-12-10T05:08:47;25.90;95.70
46055;DHT22;31788;6.954;-71.872;2022-12-10T05:11:19;25.90;95.80
46055;DHT22;31788;6.954;-71.872;2022-12-10T05:13:46;25.90;95.80
46055;DHT22;31788;6.954;-71.872;2022-12-10T05:16:15;25.90;95.80
46055;DHT22;31788;6.954;-71.872;2022-12-10T05:18:42;25.90;95.90
46055;DHT22;31788;6.954;-71.872;2022-12-10T05:21:11;25.90;95.80
46055;DHT22;31788;6.954;-71.872;2022-12-10T05:23:42;25.90;95.80
46055;DHT22;31788;6.954;-71.872;2022-12-10T05:26:11;25.90;95.80
46055;DHT22;31788;6.954;-71.872;2022-12-10T05:28:47;25.90;95.80
46055;DHT22;31788;6.954;-71.872;2022-12-10T05:31:22;25.90;95.80
46055;DHT22;31788;6.954;-71.872;2022-12-10T05:33:49;25.90;95.80
46055;DHT22;31788;6.954;-71.872;2022-12-10T05:36:19;25.90;95.90
46055;DHT22;31788;6.954;-71.872;2022-12-10T05:38:47;25.80;96.00
46055;DHT22;31788;6.954;-71.872;2022-12-10T05:41:24;25.80;96.20
46055;DHT22;31788;6.954;-71.872;2022-12-10T05:43:54;25.80;96.30
46055;DHT22;31788;6.954;-71.872;2022-12-10T05:46:23;25.70;96.40
46055;DHT22;31788;6.954;-71.872;2022-12-10T05:48:50;25.70;96.50
46055;DHT22;31788;6.954;-71.872;2022-12-10T05:51:19;25.70;96.60
46055;DHT22;31788;6.954;-71.872;2022-12-10T05:53:46;25.70;96.40
46055;DHT22;31788;6.954;-71.872;2022-12-10T05:56:15;25.70;96.40
46055;DHT22;31788;6.954;-71.872;2022-12-10T05:58:44;25.70;96.50
46055;DHT22;31788;6.954;-71.872;2022-12-10T06:01:17;25.70;96.40
46055;DHT22;31788;6.954;-71.872;2022-12-10T06:03:43;25.70;96.30
46055;DHT22;31788;6.954;-71.872;2022-12-10T06:06:11;25.70;96.40
46055;DHT22;31788;6.954;-71.872;2022-12-10T06:08:38;25.70;96.40
46055;DHT22;31788;6.954;-71.872;2022-12-10T06:11:07;25.70;96.40
46055;DHT22;31788;6.954;-71.872;2022-12-10T06:13:34;25.70;96.50
46055;DHT22;31788;6.954;-71.872;2022-12-10T06:16:05;25.70;96.70
46055;DHT22;31788;6.954;-71.872;2022-12-10T06:18:32;25.70;96.60
46055;DHT22;31788;6.954;-71.872;2022-12-10T06:20:58;25.70;96.40
46055;DHT22;31788;6.954;-71.872;2022-12-10T06:23:25;25.70;96.50
46055;DHT22;31788;6.954;-71.872;2022-12-10T06:25:51;25.70;96.50
46055;DHT22;31788;6.954;-71.872;2022-12-10T06:28:18;25.70;96.40
46055;DHT22;31788;6.954;-71.872;2022-12-10T06:30:44;25.70;96.40
46055;DHT22;31788;6.954;-71.872;2022-12-10T06:33:11;25.80;96.40
46055;DHT22;31788;6.954;-71.872;2022-12-10T06:35:38;25.80;96.30
46055;DHT22;31788;6.954;-71.872;2022-12-10T06:38:04;25.80;96.20
46055;DHT22;31788;6.954;-71.872;2022-12-10T06:40:32;25.70;96.00
46055;DHT22;31788;6.954;-71.872;2022-12-10T06:42:58;25.70;96.00
46055;DHT22;31788;6.954;-71.872;2022-12-10T06:45:25;25.70;95.90
46055;DHT22;31788;6.954;-71.872;2022-12-10T06:47:52;25.70;95.90
46055;DHT22;31788;6.954;-71.872;2022-12-10T06:50:18;25.80;95.80
46055;DHT22;31788;6.954;-71.872;2022-12-10T06:52:45;25.70;95.80
46055;DHT22;31788;6.954;-71.872;2022-12-10T06:55:11;25.80;95.80
46055;DHT22;31788;6.954;-71.872;2022-12-10T06:57:38;25.70;95.90
46055;DHT22;31788;6.954;-71.872;2022-12-10T07:00:05;25.70;95.90
46055;DHT22;31788;6.954;-71.872;2022-12-10T07:02:31;25.70;95.80
46055;DHT22;31788;6.954;-71.872;2022-12-10T07:04:58;25.70;96.10
46055;DHT22;31788;6.954;-71.872;2022-12-10T07:07:25;25.70;96.20
46055;DHT22;31788;6.954;-71.872;2022-12-10T07:09:51;25.70;96.30
46055;DHT22;31788;6.954;-71.872;2022-12-10T07:12:18;25.70;96.50
46055;DHT22;31788;6.954;-71.872;2022-12-10T07:14:44;25.70;96.20
46055;DHT22;31788;6.954;-71.872;2022-12-10T07:17:11;25.70;96.30
46055;DHT22;31788;6.954;-71.872;2022-12-10T07:19:37;25.70;96.40
46055;DHT22;31788;6.954;-71.872;2022-12-10T07:22:04;25.60;96.20
46055;DHT22;31788;6.954;-71.872;2022-12-10T07:24:30;25.60;96.20
46055;DHT22;31788;6.954;-71.872;2022-12-10T07:26:57;25.60;96.40
46055;DHT22;31788;6.954;-71.872;2022-12-10T07:29:23;25.60;96.60
46055;DHT22;31788;6.954;-71.872;2022-12-10T07:31:52;25.50;96.70
46055;DHT22;31788;6.954;-71.872;2022-12-10T07:34:20;25.50;96.80
46055;DHT22;31788;6.954;-71.872;2022-12-10T07:36:47;25.50;96.70
46055;DHT22;31788;6.954;-71.872;2022-12-10T07:39:14;25.50;96.80
46055;DHT22;31788;6.954;-71.872;2022-12-10T07:41:50;25.50;97.00
46055;DHT22;31788;6.954;-71.872;2022-12-10T07:44:19;25.50;96.90
46055;DHT22;31788;6.954;-71.872;2022-12-10T07:46:48;25.40;97.10
46055;DHT22;31788;6.954;-71.872;2022-12-10T07:49:15;25.40;97.10
46055;DHT22;31788;6.954;-71.872;2022-12-10T07:51:48;25.40;97.10
46055;DHT22;31788;6.954;-71.872;2022-12-10T07:54:16;25.50;97.00
46055;DHT22;31788;6.954;-71.872;2022-12-10T07:56:43;25.50;97.00
46055;DHT22;31788;6.954;-71.872;2022-12-10T07:59:10;25.50;97.10
46055;DHT22;31788;6.954;-71.872;2022-12-10T08:01:36;25.50;97.10
46055;DHT22;31788;6.954;-71.872;2022-12-10T08:04:03;25.50;97.20
46055;DHT22;31788;6.954;-71.872;2022-12-10T08:06:30;25.40;97.20
46055;DHT22;31788;6.954;-71.872;2022-12-10T08:08:58;25.40;97.30
46055;DHT22;31788;6.954;-71.872;2022-12-10T08:11:25;25.40;97.30
46055;DHT22;31788;6.954;-71.872;2022-12-10T08:13:53;25.50;97.40
46055;DHT22;31788;6.954;-71.872;2022-12-10T08:16:21;25.50;97.30
46055;DHT22;31788;6.954;-71.872;2022-12-10T08:18:58;25.50;97.30
46055;DHT22;31788;6.954;-71.872;2022-12-10T08:21:28;25.50;97.40
46055;DHT22;31788;6.954;-71.872;2022-12-10T08:23:55;25.50;97.30
46055;DHT22;31788;6.954;-71.872;2022-12-10T08:26:23;25.50;97.30
46055;DHT22;31788;6.954;-71.872;2022-12-10T08:28:51;25.60;97.50
46055;DHT22;31788;6.954;-71.872;2022-12-10T08:31:19;25.50;97.50
46055;DHT22;31788;6.954;-71.872;2022-12-10T08:33:46;25.60;97.70
46055;DHT22;31788;6.954;-71.872;2022-12-10T08:36:14;25.60;97.60
46055;DHT22;31788;6.954;-71.872;2022-12-10T08:38:42;25.60;97.60
46055;DHT22;31788;6.954;-71.872;2022-12-10T08:41:15;25.70;97.60
46055;DHT22;31788;6.954;-71.872;2022-12-10T08:43:42;25.70;97.60
46055;DHT22;31788;6.954;-71.872;2022-12-10T08:46:10;25.70;97.70
46055;DHT22;31788;6.954;-71.872;2022-12-10T08:48:37;25.70;97.70
46055;DHT22;31788;6.954;-71.872;2022-12-10T08:51:05;25.70;97.70
46055;DHT22;31788;6.954;-71.872;2022-12-10T08:53:32;25.70;97.70
46055;DHT22;31788;6.954;-71.872;2022-12-10T08:55:59;25.80;97.80
46055;DHT22;31788;6.954;-71.872;2022-12-10T08:58:25;25.70;97.80
46055;DHT22;31788;6.954;-71.872;2022-12-10T09:00:52;25.80;97.80
46055;DHT22;31788;6.954;-71.872;2022-12-10T09:03:19;25.80;97.70
46055;DHT22;31788;6.954;-71.872;2022-12-10T09:05:45;25.80;97.70
46055;DHT22;31788;6.954;-71.872;2022-12-10T09:08:12;25.80;97.80
46055;DHT22;31788;6.954;-71.872;2022-12-10T09:10:40;25.90;97.80
46055;DHT22;31788;6.954;-71.872;2022-12-10T09:13:07;25.90;97.80
46055;DHT22;31788;6.954;-71.872;2022-12-10T09:15:33;25.90;97.70
46055;DHT22;31788;6.954;-71.872;2022-12-10T09:18:00;25.90;97.80
46055;DHT22;31788;6.954;-71.872;2022-12-10T09:20:26;25.90;97.90
46055;DHT22;31788;6.954;-71.872;2022-12-10T09:22:53;25.90;97.80
46055;DHT22;31788;6.954;-71.872;2022-12-10T09:25:20;25.90;97.80
46055;DHT22;31788;6.954;-71.872;2022-12-10T09:27:47;25.90;97.80
46055;DHT22;31788;6.954;-71.872;2022-12-10T09:30:14;25.90;97.80
46055;DHT22;31788;6.954;-71.872;2022-12-10T09:32:41;26.00;98.00
46055;DHT22;31788;6.954;-71.872;2022-12-10T09:35:08;25.90;97.80
46055;DHT22;31788;6.954;-71.872;2022-12-10T09:37:34;25.90;97.90
46055;DHT22;31788;6.954;-71.872;2022-12-10T09:40:01;25.90;97.90
46055;DHT22;31788;6.954;-71.872;2022-12-10T09:45:30;26.00;98.10
46055;DHT22;31788;6.954;-71.872;2022-12-10T09:53:31;25.90;97.90
46055;DHT22;31788;6.954;-71.872;2022-12-10T09:55:58;25.90;98.50
46055;DHT22;31788;6.954;-71.872;2022-12-10T09:58:27;25.90;98.50
46055;DHT22;31788;6.954;-71.872;2022-12-10T10:01:03;25.90;98.20
46055;DHT22;31788;6.954;-71.872;2022-12-10T10:03:39;25.90;98.20
46055;DHT22;31788;6.954;-71.872;2022-12-10T10:06:13;25.90;98.20
46055;DHT22;31788;6.954;-71.872;2022-12-10T10:08:46;25.90;98.10
46055;DHT22;31788;6.954;-71.872;2022-12-10T10:11:25;25.90;98.10
46055;DHT22;31788;6.954;-71.872;2022-12-10T10:14:47;25.80;98.00
46055;DHT22;31788;6.954;-71.872;2022-12-10T10:17:19;25.90;97.90
46055;DHT22;31788;6.954;-71.872;2022-12-10T10:19:47;25.80;98.40
46055;DHT22;31788;6.954;-71.872;2022-12-10T10:22:15;25.80;98.10
46055;DHT22;31788;6.954;-71.872;2022-12-10T10:24:44;25.80;98.20
46055;DHT22;31788;6.954;-71.872;2022-12-10T10:27:21;25.80;98.30
46055;DHT22;31788;6.954;-71.872;2022-12-10T10:29:50;25.80;98.20
46055;DHT22;31788;6.954;-71.872;2022-12-10T10:32:20;25.80;98.30
46055;DHT22;31788;6.954;-71.872;2022-12-10T10:34:53;25.80;98.30
46055;DHT22;31788;6.954;-71.872;2022-12-10T10:37:23;25.80;98.30
46055;DHT22;31788;6.954;-71.872;2022-12-10T10:39:51;25.80;98.20
46055;DHT22;31788;6.954;-71.872;2022-12-10T10:44:55;25.70;98.30
46055;DHT22;31788;6.954;-71.872;2022-12-10T10:47:30;25.80;98.40
46055;DHT22;31788;6.954;-71.872;2022-12-10T10:49:57;25.80;98.40
46055;DHT22;31788;6.954;-71.872;2022-12-10T10:52:29;25.70;98.40
46055;DHT22;31788;6.954;-71.872;2022-12-10T10:54:56;25.70;98.40
46055;DHT22;31788;6.954;-71.872;2022-12-10T10:57:33;25.70;98.40
46055;DHT22;31788;6.954;-71.872;2022-12-10T11:00:19;25.70;98.40
46055;DHT22;31788;6.954;-71.872;2022-12-10T11:02:48;25.70;98.50
46055;DHT22;31788;6.954;-71.872;2022-12-10T11:05:25;25.70;98.60
46055;DHT22;31788;6.954;-71.872;2022-12-10T11:08:04;25.70;98.60
46055;DHT22;31788;6.954;-71.872;2022-12-10T11:10:31;25.80;98.60
46055;DHT22;31788;6.954;-71.872;2022-12-10T11:13:07;25.70;98.50
46055;DHT22;31788;6.954;-71.872;2022-12-10T11:18:03;25.80;98.50
46055;DHT22;31788;6.954;-71.872;2022-12-10T11:21:38;25.80;99.00
46055;DHT22;31788;6.954;-71.872;2022-12-10T11:23:51;25.80;98.50
46055;DHT22;31788;6.954;-71.872;2022-12-10T11:26:49;25.80;98.60
46055;DHT22;31788;6.954;-71.872;2022-12-10T11:40:02;25.90;98.70
46055;DHT22;31788;6.954;-71.872;2022-12-10T11:42:54;26.00;98.50
46055;DHT22;31788;6.954;-71.872;2022-12-10T11:51:44;26.20;98.30
46055;DHT22;31788;6.954;-71.872;2022-12-10T12:17:02;26.50;97.60
46055;DHT22;31788;6.954;-71.872;2022-12-10T12:19:43;26.60;97.50
46055;DHT22;31788;6.954;-71.872;2022-12-10T12:22:29;26.60;97.60
46055;DHT22;31788;6.954;-71.872;2022-12-10T12:25:34;26.60;97.40
46055;DHT22;31788;6.954;-71.872;2022-12-10T12:30:37;26.70;97.30
46055;DHT22;31788;6.954;-71.872;2022-12-10T12:35:47;26.80;97.30
46055;DHT22;31788;6.954;-71.872;2022-12-10T12:41:06;26.80;97.20
46055;DHT22;31788;6.954;-71.872;2022-12-10T12:46:15;26.90;97.20
46055;DHT22;31788;6.954;-71.872;2022-12-10T12:49:01;26.90;97.20
46055;DHT22;31788;6.954;-71.872;2022-12-10T12:52:15;26.90;97.30
46055;DHT22;31788;6.954;-71.872;2022-12-10T12:54:45;27.00;97.30
46055;DHT22;31788;6.954;-71.872;2022-12-10T12:57:44;27.00;97.10
46055;DHT22;31788;6.954;-71.872;2022-12-10T13:00:17;27.10;97.40
46055;DHT22;31788;6.954;-71.872;2022-12-10T13:02:58;27.10;97.10
46055;DHT22;31788;6.954;-71.872;2022-12-10T13:05:34;27.10;97.10
46055;DHT22;31788;6.954;-71.872;2022-12-10T13:11:34;27.20;97.10
46055;DHT22;31788;6.954;-71.872;2022-12-10T13:21:59;27.20;97.00
46055;DHT22;31788;6.954;-71.872;2022-12-10T13:32:21;27.30;97.00
46055;DHT22;31788;6.954;-71.872;2022-12-10T13:37:36;27.40;97.00
46055;DHT22;31788;6.954;-71.872;2022-12-10T13:40:37;27.50;96.60
46055;DHT22;31788;6.954;-71.872;2022-12-10T13:43:42;27.50;96.70
46055;DHT22;31788;6.954;-71.872;2022-12-10T13:49:52;27.60;96.90
46055;DHT22;31788;6.954;-71.872;2022-12-10T14:01:40;27.70;96.40
46055;DHT22;31788;6.954;-71.872;2022-12-10T14:07:12;27.80;95.30
46055;DHT22;31788;6.954;-71.872;2022-12-10T14:09:58;27.90;95.00
46055;DHT22;31788;6.954;-71.872;2022-12-10T14:12:38;28.00;95.50
46055;DHT22;31788;6.954;-71.872;2022-12-10T14:15:08;28.10;94.30
46055;DHT22;31788;6.954;-71.872;2022-12-10T14:17:43;28.10;94.50
46055;DHT22;31788;6.954;-71.872;2022-12-10T14:20:22;28.20;94.30
46055;DHT22;31788;6.954;-71.872;2022-12-10T14:22:51;28.20;94.20
46055;DHT22;31788;6.954;-71.872;2022-12-10T14:25:21;28.30;94.50
46055;DHT22;31788;6.954;-71.872;2022-12-10T14:27:52;28.30;94.50
46055;DHT22;31788;6.954;-71.872;2022-12-10T14:30:22;28.40;94.80
46055;DHT22;31788;6.954;-71.872;2022-12-10T14:32:50;28.40;95.00
46055;DHT22;31788;6.954;-71.872;2022-12-10T14:35:25;28.40;94.40
46055;DHT22;31788;6.954;-71.872;2022-12-10T14:37:54;28.40;94.00
46055;DHT22;31788;6.954;-71.872;2022-12-10T14:40:31;28.50;94.30
46055;DHT22;31788;6.954;-71.872;2022-12-10T14:43:07;28.40;93.90
46055;DHT22;31788;6.954;-71.872;2022-12-10T14:45:49;28.50;94.30
46055;DHT22;31788;6.954;-71.872;2022-12-10T14:48:19;28.50;94.50
46055;DHT22;31788;6.954;-71.872;2022-12-10T14:50:46;28.50;94.90
46055;DHT22;31788;6.954;-71.872;2022-12-10T14:53:24;28.60;94.60
46055;DHT22;31788;6.954;-71.872;2022-12-10T14:55:55;28.60;94.60
46055;DHT22;31788;6.954;-71.872;2022-12-10T14:58:36;28.70;94.30
46055;DHT22;31788;6.954;-71.872;2022-12-10T15:01:06;28.60;93.90
46055;DHT22;31788;6.954;-71.872;2022-12-10T15:03:38;28.60;93.80
46055;DHT22;31788;6.954;-71.872;2022-12-10T15:06:09;28.70;93.70
46055;DHT22;31788;6.954;-71.872;2022-12-10T15:08:37;28.70;93.40
46055;DHT22;31788;6.954;-71.872;2022-12-10T15:11:04;28.60;93.20
46055;DHT22;31788;6.954;-71.872;2022-12-10T15:13:42;28.60;93.20
46055;DHT22;31788;6.954;-71.872;2022-12-10T15:16:28;28.60;93.10
46055;DHT22;31788;6.954;-71.872;2022-12-10T15:18:55;28.60;93.20
46055;DHT22;31788;6.954;-71.872;2022-12-10T15:21:24;28.60;93.30
46055;DHT22;31788;6.954;-71.872;2022-12-10T15:24:11;28.60;93.40
46055;DHT22;31788;6.954;-71.872;2022-12-10T15:26:46;28.60;93.80
46055;DHT22;31788;6.954;-71.872;2022-12-10T15:32:08;28.70;94.30
46055;DHT22;31788;6.954;-71.872;2022-12-10T15:34:44;28.70;94.40
46055;DHT22;31788;6.954;-71.872;2022-12-10T15:37:27;28.70;94.30
46055;DHT22;31788;6.954;-71.872;2022-12-10T15:40:00;28.80;94.10
46055;DHT22;31788;6.954;-71.872;2022-12-10T15:45:00;28.90;94.60
46055;DHT22;31788;6.954;-71.872;2022-12-10T15:47:27;28.90;94.60
46055;DHT22;31788;6.954;-71.872;2022-12-10T15:49:55;28.90;94.60
46055;DHT22;31788;6.954;-71.872;2022-12-10T15:52:25;28.90;94.60
46055;DHT22;31788;6.954;-71.872;2022-12-10T15:54:54;29.00;94.80
46055;DHT22;31788;6.954;-71.872;2022-12-10T15:57:43;29.00;95.00
46055;DHT22;31788;6.954;-71.872;2022-12-10T16:00:26;29.00;94.90
46055;DHT22;31788;6.954;-71.872;2022-12-10T16:03:02;29.10;94.60
46055;DHT22;31788;6.954;-71.872;2022-12-10T16:05:31;29.00;94.50
46055;DHT22;31788;6.954;-71.872;2022-12-10T16:08:13;29.00;94.60
46055;DHT22;31788;6.954;-71.872;2022-12-10T16:10:42;28.90;94.40
46055;DHT22;31788;6.954;-71.872;2022-12-10T16:13:17;28.90;94.40
46055;DHT22;31788;6.954;-71.872;2022-12-10T16:16:04;28.90;94.40
46055;DHT22;31788;6.954;-71.872;2022-12-10T16:18:31;28.90;94.40
46055;DHT22;31788;6.954;-71.872;2022-12-10T16:20:58;28.90;94.40
46055;DHT22;31788;6.954;-71.872;2022-12-10T16:23:25;28.80;94.40
46055;DHT22;31788;6.954;-71.872;2022-12-10T16:25:51;28.90;94.40
46055;DHT22;31788;6.954;-71.872;2022-12-10T16:28:20;28.90;94.10
46055;DHT22;31788;6.954;-71.872;2022-12-10T16:30:49;28.90;94.20
46055;DHT22;31788;6.954;-71.872;2022-12-10T16:33:17;28.80;94.20
46055;DHT22;31788;6.954;-71.872;2022-12-10T16:35:48;28.90;94.30
46055;DHT22;31788;6.954;-71.872;2022-12-10T16:38:15;28.90;94.10
46055;DHT22;31788;6.954;-71.872;2022-12-10T16:40:43;28.80;94.30
46055;DHT22;31788;6.954;-71.872;2022-12-10T16:43:30;28.90;94.20
46055;DHT22;31788;6.954;-71.872;2022-12-10T16:45:58;28.90;93.90
46055;DHT22;31788;6.954;-71.872;2022-12-10T16:48:25;28.90;94.00
46055;DHT22;31788;6.954;-71.872;2022-12-10T16:50:52;28.90;93.90
46055;DHT22;31788;6.954;-71.872;2022-12-10T16:53:29;28.90;94.00
46055;DHT22;31788;6.954;-71.872;2022-12-10T16:56:01;29.00;94.00
46055;DHT22;31788;6.954;-71.872;2022-12-10T16:58:28;28.90;93.90
46055;DHT22;31788;6.954;-71.872;2022-12-10T17:00:55;28.90;93.60
46055;DHT22;31788;6.954;-71.872;2022-12-10T17:03:25;28.90;93.90
46055;DHT22;31788;6.954;-71.872;2022-12-10T17:06:00;28.90;94.00
46055;DHT22;31788;6.954;-71.872;2022-12-10T17:08:28;29.00;94.30
46055;DHT22;31788;6.954;-71.872;2022-12-10T17:10:55;29.00;94.40
46055;DHT22;31788;6.954;-71.872;2022-12-10T17:13:41;28.90;94.40
46055;DHT22;31788;6.954;-71.872;2022-12-10T17:16:20;29.00;94.20
46055;DHT22;31788;6.954;-71.872;2022-12-10T17:18:48;29.00;94.20
46055;DHT22;31788;6.954;-71.872;2022-12-10T17:21:14;29.00;94.20
46055;DHT22;31788;6.954;-71.872;2022-12-10T17:23:41;29.10;94.10
46055;DHT22;31788;6.954;-71.872;2022-12-10T17:28:48;29.10;94.30
46055;DHT22;31788;6.954;-71.872;2022-12-10T17:31:15;29.10;94.40
46055;DHT22;31788;6.954;-71.872;2022-12-10T17:33:42;29.10;94.30
46055;DHT22;31788;6.954;-71.872;2022-12-10T17:36:09;29.10;94.30
46055;DHT22;31788;6.954;-71.872;2022-12-10T17:38:36;29.10;94.50
46055;DHT22;31788;6.954;-71.872;2022-12-10T17:41:03;29.20;94.30
46055;DHT22;31788;6.954;-71.872;2022-12-10T17:43:31;29.20;94.40
46055;DHT22;31788;6.954;-71.872;2022-12-10T17:45:59;29.30;94.70
46055;DHT22;31788;6.954;-71.872;2022-12-10T17:48:25;29.30;94.60